createdAt,value
2019-02-18T00:00:37.883Z,25.70
2019-02-18T00:03:07.802Z,24.63
2019-02-18T00:05:36.479Z,18.70
2019-02-18T00:08:05.412Z,22.23
2019-02-18T00:10:34.031Z,22.07
2019-02-18T00:13:02.713Z,17.60
2019-02-18T00:15:31.403Z,21.23
2019-02-18T00:18:00.089Z,17.50
2019-02-18T00:20:28.764Z,16.00
2019-02-18T00:22:57.439Z,20.17
2019-02-18T00:25:26.113Z,15.73
2019-02-18T00:27:54.772Z,14.00
2019-02-18T00:30:23.457Z,15.83
2019-02-18T00:32:52.161Z,17.10
2019-02-18T00:35:20.791Z,16.73
2019-02-18T00:37:49.538Z,20.40
2019-02-18T00:40:18.236Z,19.50
2019-02-18T00:42:46.897Z,22.13
2019-02-18T00:45:15.571Z,24.73
2019-02-18T00:47:44.359Z,21.57
2019-02-18T00:50:13.025Z,19.33
2019-02-18T00:52:41.704Z,19.37
2019-02-18T00:55:10.362Z,20.13
2019-02-18T00:57:39.047Z,21.80
2019-02-18T01:00:11.085Z,21.40
2019-02-18T01:02:39.780Z,22.83
2019-02-18T01:05:08.663Z,19.93
2019-02-18T01:07:37.359Z,21.40
2019-02-18T01:10:08.920Z,20.93
2019-02-18T01:12:37.584Z,25.10
2019-02-18T01:15:09.397Z,20.33
2019-02-18T01:17:38.075Z,21.87
2019-02-18T01:20:09.600Z,19.80
2019-02-18T01:22:38.296Z,21.60
2019-02-18T01:25:08.866Z,19.57
2019-02-18T01:27:37.535Z,19.80
2019-02-18T01:30:09.378Z,20.83
2019-02-18T01:32:38.072Z,18.57
2019-02-18T01:35:06.936Z,18.80
2019-02-18T01:37:44.912Z,20.60
2019-02-18T01:40:08.952Z,22.50
2019-02-18T01:42:37.624Z,20.60
2019-02-18T01:45:09.136Z,21.80
2019-02-18T01:47:37.789Z,17.47
2019-02-18T01:50:09.672Z,21.87
2019-02-18T01:52:38.367Z,24.03
2019-02-18T01:55:08.145Z,21.27
2019-02-18T01:57:36.806Z,18.20
2019-02-18T02:00:08.891Z,21.20
2019-02-18T02:02:37.560Z,21.50
2019-02-18T02:05:06.635Z,15.63
2019-02-18T02:07:35.406Z,21.53
2019-02-18T02:10:05.469Z,19.70
2019-02-18T02:12:34.154Z,15.27
2019-02-18T02:15:02.831Z,16.50
2019-02-18T02:17:31.494Z,15.80
2019-02-18T02:20:00.360Z,18.13
2019-02-18T02:22:29.020Z,17.27
2019-02-18T02:24:57.707Z,17.90
2019-02-18T02:27:26.383Z,23.73
2019-02-18T02:29:55.047Z,23.83
2019-02-18T02:32:23.750Z,25.70
2019-02-18T02:34:52.416Z,25.33
2019-02-18T02:37:21.091Z,20.67
2019-02-18T02:39:49.760Z,20.97
2019-02-18T02:42:18.427Z,21.13
2019-02-18T02:44:47.097Z,18.07
2019-02-18T02:47:15.756Z,21.30
2019-02-18T02:49:44.465Z,20.87
2019-02-18T02:52:13.138Z,22.97
2019-02-18T02:54:41.872Z,17.03
2019-02-18T02:57:10.538Z,24.50
2019-02-18T02:59:39.206Z,22.63
2019-02-18T03:02:07.880Z,17.63
2019-02-18T03:04:36.538Z,18.73
2019-02-18T03:07:05.210Z,20.57
2019-02-18T03:09:33.916Z,21.40
2019-02-18T03:12:02.594Z,19.80
2019-02-18T03:14:31.411Z,21.80
2019-02-18T03:17:00.029Z,20.80
2019-02-18T03:19:28.720Z,21.33
2019-02-18T03:21:57.398Z,24.70
2019-02-18T03:24:26.072Z,19.47
2019-02-18T03:26:54.734Z,22.33
2019-02-18T03:29:28.920Z,21.90
2019-02-18T03:31:57.601Z,25.43
2019-02-18T03:34:29.503Z,26.60
2019-02-18T03:36:58.169Z,24.57
2019-02-18T03:39:26.841Z,24.30
2019-02-18T03:41:55.520Z,25.97
2019-02-18T03:44:24.222Z,26.30
2019-02-18T03:46:52.894Z,25.93
2019-02-18T03:49:21.603Z,27.07
2019-02-18T03:51:50.298Z,26.60
2019-02-18T03:54:18.991Z,22.93
2019-02-18T03:56:47.654Z,24.23
2019-02-18T03:59:16.320Z,24.57
2019-02-18T04:01:44.996Z,25.63
2019-02-18T04:04:13.651Z,25.60
2019-02-18T04:06:42.337Z,28.10
2019-02-18T04:09:11.013Z,25.97
2019-02-18T04:11:39.685Z,28.57
2019-02-18T04:14:08.353Z,27.73
2019-02-18T04:16:37.026Z,29.10
2019-02-18T04:19:05.700Z,28.17
2019-02-18T04:21:34.406Z,35.30
2019-02-18T04:24:03.092Z,33.50
2019-02-18T04:26:31.776Z,34.77
2019-02-18T04:29:00.473Z,33.33
2019-02-18T04:31:29.138Z,40.40
2019-02-18T04:33:57.793Z,36.03
2019-02-18T04:36:26.492Z,40.00
2019-02-18T04:38:55.158Z,37.50
2019-02-18T04:41:23.826Z,40.93
2019-02-18T04:43:52.543Z,40.93
2019-02-18T04:46:21.300Z,34.27
2019-02-18T04:48:49.972Z,60.03
2019-02-18T04:51:18.686Z,60.77
2019-02-18T04:53:47.350Z,84.00
2019-02-18T04:56:16.031Z,164.33
2019-02-18T04:58:44.703Z,151.87
2019-02-18T05:01:13.373Z,163.03
2019-02-18T05:03:42.061Z,120.47
2019-02-18T05:06:10.807Z,126.63
2019-02-18T05:08:39.487Z,110.30
2019-02-18T05:11:08.176Z,87.93
2019-02-18T05:13:36.844Z,93.50
2019-02-18T05:16:05.508Z,84.47
2019-02-18T05:18:34.192Z,59.20
2019-02-18T05:21:02.856Z,64.53
2019-02-18T05:23:31.522Z,53.17
2019-02-18T05:26:00.207Z,52.73
2019-02-18T05:28:28.882Z,59.17
2019-02-18T05:30:57.586Z,57.17
2019-02-18T05:33:26.245Z,59.73
2019-02-18T05:35:55.898Z,57.73
2019-02-18T05:38:25.010Z,52.97
2019-02-18T05:40:53.668Z,51.50
2019-02-18T05:43:22.354Z,43.90
2019-02-18T05:45:51.024Z,47.83
2019-02-18T05:48:19.700Z,44.10
2019-02-18T05:50:48.376Z,45.13
2019-02-18T05:53:17.064Z,46.60
2019-02-18T05:55:45.735Z,51.07
2019-02-18T05:58:14.444Z,47.73
2019-02-18T06:00:43.256Z,45.10
2019-02-18T06:03:11.929Z,49.67
2019-02-18T06:05:40.593Z,51.47
2019-02-18T06:08:09.278Z,47.40
2019-02-18T06:10:37.949Z,51.30
2019-02-18T06:13:06.614Z,72.23
2019-02-18T06:15:35.287Z,48.97
2019-02-18T06:18:03.951Z,48.33
2019-02-18T06:20:32.693Z,37.90
2019-02-18T06:23:01.447Z,34.03
2019-02-18T06:25:30.246Z,26.77
2019-02-18T06:27:58.958Z,27.93
2019-02-18T06:30:27.641Z,24.50
2019-02-18T06:32:56.301Z,18.30
2019-02-18T06:35:25.004Z,18.40
2019-02-18T06:37:53.679Z,22.33
2019-02-18T06:40:22.379Z,18.57
2019-02-18T06:42:51.138Z,18.97
2019-02-18T06:45:30.200Z,19.30
2019-02-18T06:48:00.472Z,24.57
2019-02-18T06:50:29.277Z,28.30
2019-02-18T06:52:58.008Z,31.33
2019-02-18T06:55:26.858Z,30.83
2019-02-18T06:57:59.836Z,34.83
2019-02-18T07:00:30.081Z,39.03
2019-02-18T07:03:00.363Z,34.37
2019-02-18T07:05:43.005Z,39.20
2019-02-18T07:08:13.344Z,29.77
2019-02-18T07:10:43.599Z,31.50
2019-02-18T07:13:13.354Z,30.57
2019-02-18T07:15:42.029Z,37.10
2019-02-18T07:18:10.739Z,33.07
2019-02-18T07:20:39.348Z,35.00
2019-02-18T07:23:08.113Z,32.87
2019-02-18T07:25:36.876Z,33.57
2019-02-18T07:28:05.551Z,36.07
2019-02-18T07:30:34.287Z,30.13
2019-02-18T07:33:03.621Z,30.00
2019-02-18T07:35:34.104Z,31.70
2019-02-18T07:38:02.782Z,35.23
2019-02-18T07:40:31.543Z,35.93
2019-02-18T07:43:01.723Z,34.00
2019-02-18T07:45:30.409Z,38.40
2019-02-18T07:47:59.086Z,38.60
2019-02-18T07:50:27.866Z,39.90
2019-02-18T07:52:56.621Z,42.10
2019-02-18T07:55:25.309Z,46.63
2019-02-18T07:57:53.988Z,47.97
2019-02-18T08:00:22.906Z,45.53
2019-02-18T08:02:51.680Z,46.87
2019-02-18T08:05:20.462Z,45.37
2019-02-18T08:07:49.163Z,47.60
2019-02-18T08:10:17.869Z,43.67
2019-02-18T08:12:46.542Z,45.83
2019-02-18T08:15:15.205Z,47.53
2019-02-18T08:17:43.947Z,38.60
2019-02-18T08:20:12.842Z,40.60
2019-02-18T08:22:41.534Z,43.27
2019-02-18T08:25:12.566Z,38.80
2019-02-18T08:27:41.389Z,39.93
2019-02-18T08:30:13.062Z,42.17
2019-02-18T08:32:41.737Z,41.03
2019-02-18T08:35:10.605Z,39.50
2019-02-18T08:37:39.398Z,37.47
2019-02-18T08:40:09.839Z,44.13
2019-02-18T08:42:38.534Z,48.90
2019-02-18T08:45:12.317Z,38.30
2019-02-18T08:47:42.141Z,49.60
2019-02-18T08:50:12.698Z,43.50
2019-02-18T08:52:41.584Z,38.43
2019-02-18T08:55:17.056Z,41.33
2019-02-18T08:57:45.935Z,45.37
2019-02-18T09:00:17.030Z,42.30
2019-02-18T09:02:45.789Z,41.90
2019-02-18T09:05:14.681Z,43.93
2019-02-18T09:07:44.019Z,42.17
2019-02-18T09:10:14.520Z,41.40
2019-02-18T09:12:43.540Z,44.00
2019-02-18T09:15:14.055Z,41.43
2019-02-18T09:17:42.761Z,41.27
2019-02-18T09:20:13.993Z,47.53
2019-02-18T09:23:02.361Z,46.97
2019-02-18T09:25:32.735Z,42.27
2019-02-18T09:28:01.525Z,42.07
2019-02-18T09:30:31.831Z,43.60
2019-02-18T09:33:00.643Z,42.13
2019-02-18T09:35:29.756Z,42.87
2019-02-18T09:37:58.433Z,36.27
2019-02-18T09:40:27.238Z,40.00
2019-02-18T09:42:56.214Z,42.50
2019-02-18T09:45:25.235Z,34.10
2019-02-18T09:47:54.453Z,41.63
2019-02-18T09:50:23.545Z,42.93
2019-02-18T09:52:52.231Z,44.10
2019-02-18T09:55:21.015Z,35.90
2019-02-18T09:57:49.794Z,39.67
2019-02-18T10:00:18.713Z,39.00
2019-02-18T10:02:47.630Z,41.43
2019-02-18T10:05:16.383Z,43.63
2019-02-18T10:07:45.137Z,41.40
2019-02-18T10:10:13.827Z,41.13
2019-02-18T10:12:42.542Z,39.03
2019-02-18T10:15:11.918Z,40.23
2019-02-18T10:17:40.676Z,43.07
2019-02-18T10:20:13.659Z,53.80
2019-02-18T10:22:42.416Z,43.63
2019-02-18T10:25:12.805Z,48.00
2019-02-18T10:27:41.624Z,43.13
2019-02-18T10:30:11.323Z,41.47
2019-02-18T10:32:40.010Z,45.67
2019-02-18T10:35:14.847Z,47.03
2019-02-18T10:37:43.637Z,47.63
2019-02-18T10:40:12.722Z,52.33
2019-02-18T10:42:41.435Z,59.07
2019-02-18T10:45:12.111Z,45.53
2019-02-18T10:47:41.547Z,48.20
2019-02-18T10:50:11.586Z,48.17
2019-02-18T10:52:40.300Z,47.23
2019-02-18T10:55:10.623Z,56.00
2019-02-18T10:57:39.848Z,55.90
2019-02-18T11:00:16.597Z,43.13
2019-02-18T11:02:45.738Z,47.73
2019-02-18T11:05:14.749Z,46.33
2019-02-18T11:07:43.581Z,47.73
2019-02-18T11:10:14.344Z,44.30
2019-02-18T11:12:43.037Z,41.85
2019-02-18T11:15:13.241Z,47.05
2019-02-18T11:17:42.415Z,49.08
2019-02-18T11:20:12.871Z,50.45
2019-02-18T11:22:43.110Z,52.55
2019-02-18T11:25:14.832Z,50.23
2019-02-18T11:27:43.540Z,47.85
2019-02-18T11:30:19.654Z,54.98
2019-02-18T11:32:48.352Z,44.30
2019-02-18T11:35:17.404Z,48.85
2019-02-18T11:37:46.125Z,51.00
2019-02-18T11:40:16.570Z,44.50
2019-02-18T11:42:45.394Z,44.13
2019-02-18T11:45:20.204Z,47.60
2019-02-18T11:47:49.520Z,45.63
2019-02-18T11:50:21.285Z,44.93
2019-02-18T11:52:50.619Z,46.92
2019-02-18T11:55:19.529Z,42.83
2019-02-18T11:57:48.304Z,45.90
2019-02-18T12:00:17.534Z,44.55
2019-02-18T12:02:46.710Z,52.38
2019-02-18T12:05:15.705Z,50.92
2019-02-18T12:07:44.760Z,52.40
2019-02-18T12:10:14.099Z,50.48
2019-02-18T12:12:43.216Z,47.15
2019-02-18T12:15:14.052Z,48.85
2019-02-18T12:17:43.067Z,46.30
2019-02-18T12:20:15.981Z,46.23
2019-02-18T12:22:44.823Z,44.80
2019-02-18T12:25:14.733Z,52.40
2019-02-18T12:27:44.241Z,51.77
2019-02-18T12:30:21.049Z,50.55
2019-02-18T12:32:49.873Z,39.65
2019-02-18T12:35:18.643Z,40.90
2019-02-18T12:37:54.956Z,44.38
2019-02-18T12:40:18.028Z,47.43
2019-02-18T12:42:46.899Z,46.77
2019-02-18T12:45:15.917Z,47.53
2019-02-18T12:47:44.605Z,45.52
2019-02-18T12:50:13.950Z,43.83
2019-02-18T12:52:42.896Z,49.18
2019-02-18T12:55:12.300Z,46.63
2019-02-18T12:57:41.057Z,45.92
2019-02-18T13:00:13.939Z,46.28
2019-02-18T13:02:44.694Z,43.42
2019-02-18T13:05:13.984Z,45.17
2019-02-18T13:07:42.760Z,41.53
2019-02-18T13:10:12.217Z,42.33
2019-02-18T13:12:41.538Z,45.40
2019-02-18T13:15:13.112Z,40.60
2019-02-18T13:17:42.808Z,46.70
2019-02-18T13:20:12.042Z,45.98
2019-02-18T13:22:40.845Z,45.83
2019-02-18T13:25:10.688Z,43.23
2019-02-18T13:27:39.380Z,41.73
2019-02-18T13:30:19.477Z,45.85
2019-02-18T13:32:48.316Z,39.45
2019-02-18T13:35:17.787Z,41.60
2019-02-18T13:37:46.579Z,45.85
2019-02-18T13:40:16.769Z,44.08
2019-02-18T13:42:46.170Z,50.00
2019-02-18T13:45:15.306Z,39.15
2019-02-18T13:47:45.109Z,41.35
2019-02-18T13:50:14.987Z,43.70
2019-02-18T13:52:43.770Z,44.60
2019-02-18T13:55:13.759Z,44.33
2019-02-18T13:57:42.979Z,45.03
2019-02-18T14:00:16.373Z,43.95
2019-02-18T14:02:45.145Z,42.88
2019-02-18T14:05:14.251Z,39.55
2019-02-18T14:07:42.942Z,44.33
2019-02-18T14:10:11.889Z,41.83
2019-02-18T14:12:40.841Z,49.38
2019-02-18T14:15:12.267Z,40.43
2019-02-18T14:17:40.964Z,36.58
2019-02-18T14:20:11.996Z,46.23
2019-02-18T14:22:40.959Z,42.48
2019-02-18T14:25:10.952Z,40.03
2019-02-18T14:27:39.651Z,42.60
2019-02-18T14:30:14.761Z,44.33
2019-02-18T14:32:43.734Z,43.52
2019-02-18T14:35:12.582Z,46.00
2019-02-18T14:37:41.370Z,51.83
2019-02-18T14:40:12.743Z,47.03
2019-02-18T14:42:41.410Z,44.87
2019-02-18T14:45:10.899Z,45.43
2019-02-18T14:47:39.590Z,47.97
2019-02-18T14:50:09.653Z,47.17
2019-02-18T14:52:38.389Z,47.97
2019-02-18T14:55:09.112Z,48.03
2019-02-18T14:57:37.868Z,53.90
2019-02-18T15:00:21.348Z,47.20
2019-02-18T15:02:51.455Z,45.33
2019-02-18T15:05:20.389Z,66.23
2019-02-18T15:07:49.278Z,56.53
2019-02-18T15:10:18.202Z,51.50
2019-02-18T15:12:46.904Z,56.23
2019-02-18T15:15:15.976Z,53.63
2019-02-18T15:17:44.763Z,46.07
2019-02-18T15:20:13.489Z,40.70
2019-02-18T15:22:42.246Z,48.90
2019-02-18T15:25:11.748Z,41.07
2019-02-18T15:27:40.436Z,46.57
2019-02-18T15:30:12.613Z,52.53
2019-02-18T15:32:41.393Z,50.47
2019-02-18T15:35:10.237Z,57.67
2019-02-18T15:37:38.976Z,46.27
2019-02-18T15:40:09.969Z,52.00
2019-02-18T15:42:42.148Z,34.77
2019-02-18T15:45:10.098Z,33.70
2019-02-18T15:47:39.239Z,31.53
2019-02-18T15:50:12.936Z,29.30
2019-02-18T15:52:41.710Z,33.30
2019-02-18T15:55:11.408Z,37.23
2019-02-18T15:57:40.189Z,39.53
2019-02-18T16:00:21.072Z,34.17
2019-02-18T16:02:50.272Z,41.87
2019-02-18T16:05:19.501Z,36.40
2019-02-18T16:07:48.278Z,39.53
2019-02-18T16:10:16.993Z,34.67
2019-02-18T16:12:50.735Z,38.83
2019-02-18T16:15:16.419Z,49.80
2019-02-18T16:17:45.672Z,40.67
2019-02-18T16:20:14.857Z,51.17
2019-02-18T16:22:43.660Z,48.93
2019-02-18T16:25:15.260Z,74.37
2019-02-18T16:27:43.934Z,86.87
2019-02-18T16:30:14.708Z,77.27
2019-02-18T16:32:43.748Z,74.43
2019-02-18T16:35:12.549Z,46.40
2019-02-18T16:37:41.904Z,44.83
2019-02-18T16:40:15.944Z,33.23
2019-02-18T16:42:44.760Z,40.23
2019-02-18T16:45:15.142Z,33.97
2019-02-18T16:47:43.908Z,48.07
2019-02-18T16:50:12.828Z,37.40
2019-02-18T16:52:41.497Z,39.07
2019-02-18T16:55:12.262Z,43.97
2019-02-18T16:57:40.950Z,40.23
2019-02-18T17:00:22.190Z,43.93
2019-02-18T17:02:51.136Z,51.43
2019-02-18T17:05:20.157Z,44.80
2019-02-18T17:07:48.830Z,55.73
2019-02-18T17:10:17.508Z,53.47
2019-02-18T17:12:46.558Z,55.23
2019-02-18T17:15:15.234Z,56.17
2019-02-18T17:17:43.943Z,54.77
2019-02-18T17:20:12.600Z,57.63
2019-02-18T17:22:41.457Z,48.40
2019-02-18T17:25:11.930Z,38.80
2019-02-18T17:27:40.610Z,45.43
2019-02-18T17:30:12.212Z,44.67
2019-02-18T17:32:41.008Z,39.10
2019-02-18T17:35:14.353Z,44.57
2019-02-18T17:37:43.032Z,45.10
2019-02-18T17:40:13.007Z,56.27
2019-02-18T17:42:42.103Z,59.07
2019-02-18T17:45:16.205Z,55.23
2019-02-18T17:47:44.873Z,51.07
2019-02-18T17:50:15.518Z,46.10
2019-02-18T17:52:44.258Z,52.67
2019-02-18T17:55:15.599Z,53.03
2019-02-18T17:57:44.271Z,56.73
2019-02-18T18:00:15.689Z,59.40
2019-02-18T18:02:44.373Z,52.37
2019-02-18T18:05:13.366Z,46.83
2019-02-18T18:07:42.107Z,48.33
2019-02-18T18:10:12.476Z,48.77
2019-02-18T18:12:41.167Z,53.57
2019-02-18T18:15:12.481Z,58.80
2019-02-18T18:17:41.204Z,65.70
2019-02-18T18:20:11.970Z,58.13
2019-02-18T18:22:41.308Z,51.97
2019-02-18T18:25:12.516Z,50.37
2019-02-18T18:27:41.206Z,43.97
2019-02-18T18:30:12.615Z,40.47
2019-02-18T18:32:41.323Z,41.90
2019-02-18T18:35:11.775Z,49.10
2019-02-18T18:37:40.490Z,51.53
2019-02-18T18:40:14.701Z,52.20
2019-02-18T18:42:43.406Z,49.03
2019-02-18T18:45:15.615Z,49.60
2019-02-18T18:47:44.483Z,45.20
2019-02-18T18:50:15.843Z,46.17
2019-02-18T18:52:44.882Z,35.73
2019-02-18T18:55:13.552Z,35.90
2019-02-18T18:57:42.228Z,34.73
2019-02-18T19:00:21.694Z,26.83
2019-02-18T19:02:50.362Z,35.97
2019-02-18T19:05:19.414Z,29.20
2019-02-18T19:07:48.117Z,26.43
2019-02-18T19:10:17.467Z,28.27
2019-02-18T19:12:46.138Z,25.43
2019-02-18T19:15:17.095Z,24.53
2019-02-18T19:17:45.786Z,30.53
2019-02-18T19:20:14.815Z,26.30
2019-02-18T19:22:43.502Z,26.73
2019-02-18T19:25:12.884Z,25.37
2019-02-18T19:27:41.643Z,24.70
2019-02-18T19:30:13.285Z,37.10
2019-02-18T19:32:41.976Z,48.20
2019-02-18T19:35:10.669Z,44.87
2019-02-18T19:37:39.358Z,48.43
2019-02-18T19:40:10.741Z,51.50
2019-02-18T19:42:39.449Z,46.23
2019-02-18T19:45:17.015Z,50.60
2019-02-18T19:47:45.721Z,55.23
2019-02-18T19:50:14.392Z,44.43
2019-02-18T19:52:43.070Z,47.50
2019-02-18T19:55:13.038Z,45.50
2019-02-18T19:57:41.703Z,40.40
2019-02-18T20:00:13.280Z,36.00
2019-02-18T20:02:41.951Z,34.43
2019-02-18T20:05:10.920Z,34.13
2019-02-18T20:07:39.601Z,37.93
2019-02-18T20:10:11.037Z,39.30
2019-02-18T20:12:39.827Z,31.77
2019-02-18T20:15:11.255Z,33.20
2019-02-18T20:17:39.918Z,26.67
2019-02-18T20:20:16.551Z,34.90
2019-02-18T20:22:45.223Z,27.10
2019-02-18T20:25:14.107Z,25.97
2019-02-18T20:27:42.750Z,21.70
2019-02-18T20:30:16.326Z,26.50
2019-02-18T20:32:44.988Z,24.10
2019-02-18T20:35:13.766Z,23.83
2019-02-18T20:37:42.439Z,24.37
2019-02-18T20:40:11.944Z,21.57
2019-02-18T20:42:42.456Z,22.77
2019-02-18T20:45:12.444Z,29.93
2019-02-18T20:47:41.422Z,25.07
2019-02-18T20:50:14.534Z,35.67
2019-02-18T20:52:43.199Z,29.80
2019-02-18T20:55:13.581Z,33.83
2019-02-18T20:57:43.336Z,29.47
2019-02-18T21:00:22.661Z,33.17
2019-02-18T21:02:51.325Z,35.60
2019-02-18T21:05:20.175Z,33.90
2019-02-18T21:07:49.234Z,34.67
2019-02-18T21:10:24.285Z,34.20
2019-02-18T21:12:53.070Z,31.33
2019-02-18T21:15:21.733Z,29.50
2019-02-18T21:17:50.399Z,31.20
2019-02-18T21:20:19.077Z,34.30
2019-02-18T21:22:48.128Z,36.27
2019-02-18T21:25:16.802Z,35.77
2019-02-18T21:27:45.473Z,33.37
2019-02-18T21:30:15.446Z,35.13
2019-02-18T21:32:44.107Z,30.77
2019-02-18T21:35:12.785Z,37.80
2019-02-18T21:37:42.011Z,39.27
2019-02-18T21:40:11.841Z,39.33
2019-02-18T21:42:40.528Z,36.40
2019-02-18T21:45:11.987Z,39.23
2019-02-18T21:47:40.693Z,33.73
2019-02-18T21:50:10.663Z,33.53
2019-02-18T21:52:39.618Z,31.10
2019-02-18T21:55:10.186Z,35.87
2019-02-18T21:57:39.216Z,33.53
2019-02-18T22:00:21.130Z,31.10
2019-02-18T22:02:50.213Z,33.33
2019-02-18T22:05:19.361Z,29.93
2019-02-18T22:07:48.510Z,25.60
2019-02-18T22:10:17.292Z,29.50
2019-02-18T22:12:45.956Z,29.70
2019-02-18T22:15:15.679Z,31.73
2019-02-18T22:17:44.585Z,28.83
2019-02-18T22:20:14.459Z,28.63
2019-02-18T22:22:43.149Z,26.73
2019-02-18T22:25:12.919Z,27.23
2019-02-18T22:27:41.698Z,26.20
2019-02-18T22:30:15.752Z,23.23
2019-02-18T22:32:44.514Z,21.07
2019-02-18T22:35:13.598Z,22.53
2019-02-18T22:37:42.502Z,21.90
2019-02-18T22:40:12.679Z,21.23
2019-02-18T22:42:41.651Z,19.27
2019-02-18T22:45:11.853Z,21.17
2019-02-18T22:47:40.584Z,22.60
2019-02-18T22:50:11.002Z,28.60
2019-02-18T22:52:39.752Z,22.17
2019-02-18T22:55:09.969Z,26.67
2019-02-18T22:57:38.723Z,20.27
2019-02-18T23:00:10.329Z,23.63
2019-02-18T23:02:40.408Z,25.33
2019-02-18T23:05:09.088Z,21.40
2019-02-18T23:07:37.812Z,18.13
2019-02-18T23:10:07.255Z,19.77
2019-02-18T23:12:35.939Z,20.67
2019-02-18T23:15:05.716Z,18.23
2019-02-18T23:17:34.405Z,19.30
2019-02-18T23:20:03.070Z,19.43
2019-02-18T23:22:32.065Z,19.10
2019-02-18T23:25:01.538Z,18.03
2019-02-18T23:27:30.318Z,19.73
2019-02-18T23:29:59.035Z,19.07
2019-02-18T23:32:27.730Z,18.63
2019-02-18T23:34:56.563Z,17.83
2019-02-18T23:37:25.842Z,18.87
2019-02-18T23:39:54.528Z,20.83
2019-02-18T23:42:23.219Z,20.40
2019-02-18T23:44:58.995Z,19.43
2019-02-18T23:47:22.342Z,22.30
2019-02-18T23:49:51.075Z,22.13
2019-02-18T23:52:19.745Z,19.23
2019-02-18T23:54:48.445Z,19.90
2019-02-18T23:57:17.142Z,21.03
2019-02-18T23:59:45.807Z,17.63
